sensor_id;sensor_type;location;lat;lon;timestamp;pressure;altitude;pressure_sealevel;temperature;humidity
23059;BME280;30585;51.502;7.218;2022-07-03T00:02:23;154315.16;;;16.38;85.36
23059;BME280;30585;51.502;7.218;2022-07-03T00:04:51;154287.88;;;16.27;83.60
23059;BME280;30585;51.502;7.218;2022-07-03T00:07:19;154268.44;;;16.19;83.35
23059;BME280;30585;51.502;7.218;2022-07-03T00:09:47;154251.56;;;16.13;86.25
23059;BME280;30585;51.502;7.218;2022-07-03T00:12:14;154223.03;;;16.01;85.30
23059;BME280;30585;51.502;7.218;2022-07-03T00:14:44;154208.75;;;15.96;85.02
23059;BME280;30585;51.502;7.218;2022-07-03T00:17:12;154181.53;;;15.85;86.52
23059;BME280;30585;51.502;7.218;2022-07-03T00:19:41;154162.00;;;15.77;86.10
23059;BME280;30585;51.502;7.218;2022-07-03T00:22:12;154162.00;;;15.77;86.26
23059;BME280;30585;51.502;7.218;2022-07-03T00:24:42;154086.78;;;15.47;87.18
23059;BME280;30585;51.502;7.218;2022-07-03T00:27:14;154079.00;;;15.44;86.71
23059;BME280;30585;51.502;7.218;2022-07-03T00:29:44;154102.34;;;15.53;88.69
23059;BME280;30585;51.502;7.218;2022-07-03T00:32:13;154080.31;;;15.45;89.52
23059;BME280;30585;51.502;7.218;2022-07-03T00:34:43;154072.53;;;15.41;89.84
23059;BME280;30585;51.502;7.218;2022-07-03T00:37:11;154046.59;;;15.31;90.65
23059;BME280;30585;51.502;7.218;2022-07-03T00:39:40;154080.31;;;15.45;89.58
23059;BME280;30585;51.502;7.218;2022-07-03T00:42:09;154055.66;;;15.35;91.28
23059;BME280;30585;51.502;7.218;2022-07-03T00:44:47;154059.56;;;15.36;90.95
23059;BME280;30585;51.502;7.218;2022-07-03T00:47:17;154071.25;;;15.41;90.87
23059;BME280;30585;51.502;7.218;2022-07-03T00:49:49;154080.31;;;15.45;92.26
23059;BME280;30585;51.502;7.218;2022-07-03T00:52:18;154069.91;;;15.40;93.27
23059;BME280;30585;51.502;7.218;2022-07-03T00:54:52;154054.38;;;15.34;91.86
23059;BME280;30585;51.502;7.218;2022-07-03T00:57:21;154108.84;;;15.56;93.30
23059;BME280;30585;51.502;7.218;2022-07-03T00:59:49;154114.06;;;15.58;93.03
23059;BME280;30585;51.502;7.218;2022-07-03T01:02:29;154121.78;;;15.61;91.85
23059;BME280;30585;51.502;7.218;2022-07-03T01:05:11;154127.00;;;15.63;93.81
23059;BME280;30585;51.502;7.218;2022-07-03T01:07:46;154112.72;;;15.57;91.95
23059;BME280;30585;51.502;7.218;2022-07-03T01:10:23;154110.13;;;15.56;92.42
23059;BME280;30585;51.502;7.218;2022-07-03T01:12:57;154077.72;;;15.43;90.56
23059;BME280;30585;51.502;7.218;2022-07-03T01:15:36;154053.09;;;15.34;93.36
23059;BME280;30585;51.502;7.218;2022-07-03T01:18:20;154040.09;;;15.29;91.33
23059;BME280;30585;51.502;7.218;2022-07-03T01:20:58;154023.25;;;15.22;92.34
23059;BME280;30585;51.502;7.218;2022-07-03T01:23:33;153981.78;;;15.05;92.48
23059;BME280;30585;51.502;7.218;2022-07-03T01:26:08;153916.97;;;14.79;93.90
23059;BME280;30585;51.502;7.218;2022-07-03T01:28:39;153946.78;;;14.91;93.05
23059;BME280;30585;51.502;7.218;2022-07-03T01:31:10;153981.78;;;15.05;93.98
23059;BME280;30585;51.502;7.218;2022-07-03T01:33:41;153940.31;;;14.89;92.56
23059;BME280;30585;51.502;7.218;2022-07-03T01:36:09;153937.72;;;14.88;92.66
23059;BME280;30585;51.502;7.218;2022-07-03T01:38:41;153963.63;;;14.98;93.99
23059;BME280;30585;51.502;7.218;2022-07-03T01:41:11;153907.91;;;14.76;93.60
23059;BME280;30585;51.502;7.218;2022-07-03T01:43:45;153884.56;;;14.67;93.89
23059;BME280;30585;51.502;7.218;2022-07-03T01:46:17;153891.06;;;14.69;96.19
23059;BME280;30585;51.502;7.218;2022-07-03T01:48:45;153862.47;;;14.58;94.60
23059;BME280;30585;51.502;7.218;2022-07-03T01:51:13;153871.53;;;14.61;95.26
23059;BME280;30585;51.502;7.218;2022-07-03T01:53:44;153881.94;;;14.65;95.06
23059;BME280;30585;51.502;7.218;2022-07-03T01:56:15;153870.25;;;14.61;95.37
23059;BME280;30585;51.502;7.218;2022-07-03T01:58:43;153826.16;;;14.43;94.76
23059;BME280;30585;51.502;7.218;2022-07-03T02:01:16;153822.28;;;14.42;94.39
23059;BME280;30585;51.502;7.218;2022-07-03T02:03:55;153792.50;;;14.30;94.80
23059;BME280;30585;51.502;7.218;2022-07-03T02:06:37;153823.63;;;14.42;94.56
23059;BME280;30585;51.502;7.218;2022-07-03T02:09:08;153823.63;;;14.42;94.08
23059;BME280;30585;51.502;7.218;2022-07-03T02:11:54;153830.09;;;14.45;95.96
23059;BME280;30585;51.502;7.218;2022-07-03T02:14:24;153839.16;;;14.48;95.34
23059;BME280;30585;51.502;7.218;2022-07-03T02:16:58;153844.34;;;14.51;98.11
23059;BME280;30585;51.502;7.218;2022-07-03T02:19:37;153828.75;;;14.44;96.96
23059;BME280;30585;51.502;7.218;2022-07-03T02:22:08;153841.75;;;14.49;98.64
23059;BME280;30585;51.502;7.218;2022-07-03T02:24:42;153844.34;;;14.51;99.57
23059;BME280;30585;51.502;7.218;2022-07-03T02:27:16;153841.75;;;14.49;98.24
23059;BME280;30585;51.502;7.218;2022-07-03T02:29:47;153846.94;;;14.52;100.00
23059;BME280;30585;51.502;7.218;2022-07-03T02:32:20;153823.63;;;14.42;99.56
23059;BME280;30585;51.502;7.218;2022-07-03T02:34:58;153846.94;;;14.52;100.00
23059;BME280;30585;51.502;7.218;2022-07-03T02:37:30;153836.56;;;14.47;99.83
23059;BME280;30585;51.502;7.218;2022-07-03T02:40:03;153839.16;;;14.48;100.00
23059;BME280;30585;51.502;7.218;2022-07-03T02:42:39;153835.28;;;14.47;99.01
23059;BME280;30585;51.502;7.218;2022-07-03T02:45:11;153817.09;;;14.40;100.00
23059;BME280;30585;51.502;7.218;2022-07-03T02:47:46;153826.16;;;14.43;100.00
23059;BME280;30585;51.502;7.218;2022-07-03T02:50:20;153823.63;;;14.42;99.23
23059;BME280;30585;51.502;7.218;2022-07-03T02:53:00;153788.59;;;14.28;99.04
23059;BME280;30585;51.502;7.218;2022-07-03T02:55:41;153780.84;;;14.25;99.39
23059;BME280;30585;51.502;7.218;2022-07-03T02:58:27;153805.44;;;14.35;100.00
23059;BME280;30585;51.502;7.218;2022-07-03T03:00:58;153788.59;;;14.28;100.00
23059;BME280;30585;51.502;7.218;2022-07-03T03:03:27;153788.59;;;14.28;100.00
23059;BME280;30585;51.502;7.218;2022-07-03T03:06:01;153784.72;;;14.27;99.66
23059;BME280;30585;51.502;7.218;2022-07-03T03:08:35;153789.91;;;14.29;100.00
23059;BME280;30585;51.502;7.218;2022-07-03T03:11:06;153784.72;;;14.27;100.00
23059;BME280;30585;51.502;7.218;2022-07-03T03:13:36;153764.00;;;14.18;100.00
23059;BME280;30585;51.502;7.218;2022-07-03T03:16:07;153782.13;;;14.26;100.00
23059;BME280;30585;51.502;7.218;2022-07-03T03:18:37;153760.13;;;14.17;100.00
23059;BME280;30585;51.502;7.218;2022-07-03T03:21:08;153795.09;;;14.31;100.00
23059;BME280;30585;51.502;7.218;2022-07-03T03:23:44;153792.50;;;14.30;100.00
23059;BME280;30585;51.502;7.218;2022-07-03T03:26:17;153784.72;;;14.27;100.00
23059;BME280;30585;51.502;7.218;2022-07-03T03:28:47;153788.59;;;14.28;100.00
23059;BME280;30585;51.502;7.218;2022-07-03T03:31:15;153784.72;;;14.27;99.13
23059;BME280;30585;51.502;7.218;2022-07-03T03:33:44;153756.19;;;14.15;99.86
23059;BME280;30585;51.502;7.218;2022-07-03T03:36:13;153740.66;;;14.09;100.00
23059;BME280;30585;51.502;7.218;2022-07-03T03:38:43;153749.72;;;14.13;100.00
23059;BME280;30585;51.502;7.218;2022-07-03T03:41:11;153739.41;;;14.09;100.00
23059;BME280;30585;51.502;7.218;2022-07-03T03:43:43;153705.69;;;13.95;100.00
23059;BME280;30585;51.502;7.218;2022-07-03T03:46:12;153751.06;;;14.13;99.98
23059;BME280;30585;51.502;7.218;2022-07-03T03:48:41;153744.53;;;14.11;99.61
23059;BME280;30585;51.502;7.218;2022-07-03T03:51:09;153751.06;;;14.13;100.00
23059;BME280;30585;51.502;7.218;2022-07-03T03:53:37;153741.94;;;14.10;100.00
23059;BME280;30585;51.502;7.218;2022-07-03T03:56:07;153748.47;;;14.12;100.00
23059;BME280;30585;51.502;7.218;2022-07-03T03:58:37;153748.47;;;14.12;100.00
23059;BME280;30585;51.502;7.218;2022-07-03T04:01:07;153758.78;;;14.16;100.00
23059;BME280;30585;51.502;7.218;2022-07-03T04:03:37;153757.53;;;14.16;100.00
23059;BME280;30585;51.502;7.218;2022-07-03T04:06:05;153771.78;;;14.22;100.00
23059;BME280;30585;51.502;7.218;2022-07-03T04:08:33;153809.34;;;14.37;100.00
23059;BME280;30585;51.502;7.218;2022-07-03T04:11:01;153800.28;;;14.33;100.00
23059;BME280;30585;51.502;7.218;2022-07-03T04:13:29;153831.34;;;14.45;100.00
23059;BME280;30585;51.502;7.218;2022-07-03T04:15:57;153826.16;;;14.43;100.00
23059;BME280;30585;51.502;7.218;2022-07-03T04:18:25;153874.13;;;14.62;100.00
23059;BME280;30585;51.502;7.218;2022-07-03T04:21:00;153896.25;;;14.71;100.00
23059;BME280;30585;51.502;7.218;2022-07-03T04:23:28;153894.91;;;14.71;100.00
23059;BME280;30585;51.502;7.218;2022-07-03T04:25:55;153913.06;;;14.78;100.00
23059;BME280;30585;51.502;7.218;2022-07-03T04:28:23;153941.56;;;14.89;100.00
23059;BME280;30585;51.502;7.218;2022-07-03T04:30:51;153945.44;;;14.91;100.00
23059;BME280;30585;51.502;7.218;2022-07-03T04:33:19;153948.03;;;14.92;100.00
23059;BME280;30585;51.502;7.218;2022-07-03T04:35:47;153997.31;;;15.11;100.00
23059;BME280;30585;51.502;7.218;2022-07-03T04:38:16;154023.25;;;15.22;100.00
23059;BME280;30585;51.502;7.218;2022-07-03T04:40:44;153997.31;;;15.11;100.00
23059;BME280;30585;51.502;7.218;2022-07-03T04:43:12;154063.44;;;15.38;100.00
23059;BME280;30585;51.502;7.218;2022-07-03T04:45:42;154076.44;;;15.43;100.00
23059;BME280;30585;51.502;7.218;2022-07-03T04:48:10;154111.44;;;15.57;100.00
23059;BME280;30585;51.502;7.218;2022-07-03T04:50:38;154115.31;;;15.58;100.00
23059;BME280;30585;51.502;7.218;2022-07-03T04:53:06;154164.59;;;15.78;100.00
23059;BME280;30585;51.502;7.218;2022-07-03T04:55:35;154160.72;;;15.77;99.48
23059;BME280;30585;51.502;7.218;2022-07-03T04:58:03;154203.56;;;15.94;98.53
23059;BME280;30585;51.502;7.218;2022-07-03T05:00:31;154223.03;;;16.01;98.35
23059;BME280;30585;51.502;7.218;2022-07-03T05:02:59;154242.50;;;16.09;98.18
23059;BME280;30585;51.502;7.218;2022-07-03T05:05:27;154287.88;;;16.27;97.99
23059;BME280;30585;51.502;7.218;2022-07-03T05:07:55;154321.63;;;16.41;97.51
23059;BME280;30585;51.502;7.218;2022-07-03T05:10:23;154369.59;;;16.60;97.15
23059;BME280;30585;51.502;7.218;2022-07-03T05:12:52;154407.25;;;16.75;97.02
23059;BME280;30585;51.502;7.218;2022-07-03T05:15:20;154441.00;;;16.88;97.90
23059;BME280;30585;51.502;7.218;2022-07-03T05:17:48;154498.19;;;17.11;97.13
23059;BME280;30585;51.502;7.218;2022-07-03T05:20:16;154521.56;;;17.20;92.75
23059;BME280;30585;51.502;7.218;2022-07-03T05:22:56;154568.28;;;17.39;90.56
23059;BME280;30585;51.502;7.218;2022-07-03T05:25:24;154604.63;;;17.53;90.55
23059;BME280;30585;51.502;7.218;2022-07-03T05:27:54;154611.09;;;17.56;89.51
23059;BME280;30585;51.502;7.218;2022-07-03T05:30:23;154638.41;;;17.67;88.19
23059;BME280;30585;51.502;7.218;2022-07-03T05:32:52;154615.03;;;17.57;85.69
23059;BME280;30585;51.502;7.218;2022-07-03T05:35:20;154609.84;;;17.55;84.68
23059;BME280;30585;51.502;7.218;2022-07-03T05:37:48;154603.34;;;17.53;84.89
23059;BME280;30585;51.502;7.218;2022-07-03T05:40:16;154609.84;;;17.55;84.65
23059;BME280;30585;51.502;7.218;2022-07-03T05:42:44;154594.25;;;17.49;84.16
23059;BME280;30585;51.502;7.218;2022-07-03T05:45:13;154573.44;;;17.41;83.07
23059;BME280;30585;51.502;7.218;2022-07-03T05:47:41;154577.38;;;17.42;84.47
23059;BME280;30585;51.502;7.218;2022-07-03T05:50:10;154594.25;;;17.49;83.27
23059;BME280;30585;51.502;7.218;2022-07-03T05:52:38;154668.25;;;17.79;85.33
23059;BME280;30585;51.502;7.218;2022-07-03T05:55:06;154738.44;;;18.06;85.97
23059;BME280;30585;51.502;7.218;2022-07-03T05:57:34;154781.31;;;18.24;82.53
23059;BME280;30585;51.502;7.218;2022-07-03T06:00:03;154854.06;;;18.52;79.75
23059;BME280;30585;51.502;7.218;2022-07-03T06:02:32;154912.53;;;18.76;78.13
23059;BME280;30585;51.502;7.218;2022-07-03T06:05:00;154965.84;;;18.97;78.96
23059;BME280;30585;51.502;7.218;2022-07-03T06:07:28;154981.50;;;19.03;75.37
23059;BME280;30585;51.502;7.218;2022-07-03T06:09:56;155054.28;;;19.32;73.32
23059;BME280;30585;51.502;7.218;2022-07-03T06:12:24;155091.97;;;19.47;73.21
23059;BME280;30585;51.502;7.218;2022-07-03T06:14:51;155133.56;;;19.64;73.53
23059;BME280;30585;51.502;7.218;2022-07-03T06:17:25;155167.34;;;19.77;72.34
23059;BME280;30585;51.502;7.218;2022-07-03T06:19:54;155189.50;;;19.86;69.45
23059;BME280;30585;51.502;7.218;2022-07-03T06:22:22;155233.72;;;20.03;71.10
23059;BME280;30585;51.502;7.218;2022-07-03T06:24:50;155309.16;;;20.33;70.52
23059;BME280;30585;51.502;7.218;2022-07-03T06:27:18;155309.16;;;20.33;69.80
23059;BME280;30585;51.502;7.218;2022-07-03T06:29:46;155410.69;;;20.74;68.55
23059;BME280;30585;51.502;7.218;2022-07-03T06:32:16;155444.53;;;20.87;67.69
23059;BME280;30585;51.502;7.218;2022-07-03T06:34:44;155431.50;;;20.82;67.30
23059;BME280;30585;51.502;7.218;2022-07-03T06:37:13;155500.47;;;21.09;66.15
23059;BME280;30585;51.502;7.218;2022-07-03T06:39:41;155548.59;;;21.28;67.20
23059;BME280;30585;51.502;7.218;2022-07-03T06:42:10;155588.97;;;21.44;66.18
23059;BME280;30585;51.502;7.218;2022-07-03T06:44:38;155557.72;;;21.32;66.38
23059;BME280;30585;51.502;7.218;2022-07-03T06:47:07;155561.66;;;21.33;63.78
23059;BME280;30585;51.502;7.218;2022-07-03T06:49:35;155596.78;;;21.47;63.39
23059;BME280;30585;51.502;7.218;2022-07-03T06:52:03;155585.06;;;21.43;62.76
23059;BME280;30585;51.502;7.218;2022-07-03T06:54:32;155536.91;;;21.24;61.93
23059;BME280;30585;51.502;7.218;2022-07-03T06:57:00;155513.47;;;21.14;63.81
23059;BME280;30585;51.502;7.218;2022-07-03T06:59:28;155565.53;;;21.35;63.12
23059;BME280;30585;51.502;7.218;2022-07-03T07:01:56;155643.69;;;21.66;63.06
23059;BME280;30585;51.502;7.218;2022-07-03T07:04:24;155712.66;;;21.93;63.83
23059;BME280;30585;51.502;7.218;2022-07-03T07:06:52;155712.66;;;21.93;60.19
23059;BME280;30585;51.502;7.218;2022-07-03T07:09:20;155766.06;;;22.15;61.75
23059;BME280;30585;51.502;7.218;2022-07-03T07:11:49;155751.75;;;22.09;62.11
23059;BME280;30585;51.502;7.218;2022-07-03T07:14:17;155805.13;;;22.30;59.79
23059;BME280;30585;51.502;7.218;2022-07-03T07:16:44;155829.94;;;22.40;60.73
23059;BME280;30585;51.502;7.218;2022-07-03T07:19:12;155909.38;;;22.71;61.31
23059;BME280;30585;51.502;7.218;2022-07-03T07:21:40;155973.22;;;22.97;60.03
23059;BME280;30585;51.502;7.218;2022-07-03T07:24:08;156047.50;;;23.26;59.11
23059;BME280;30585;51.502;7.218;2022-07-03T07:26:36;156026.63;;;23.18;57.67
23059;BME280;30585;51.502;7.218;2022-07-03T07:29:05;155941.94;;;22.84;59.50
23059;BME280;30585;51.502;7.218;2022-07-03T07:31:33;156011.00;;;23.12;60.33
23059;BME280;30585;51.502;7.218;2022-07-03T07:34:01;156055.34;;;23.29;58.38
23059;BME280;30585;51.502;7.218;2022-07-03T07:36:31;156095.75;;;23.45;58.46
23059;BME280;30585;51.502;7.218;2022-07-03T07:38:58;156198.69;;;23.86;59.42
23059;BME280;30585;51.502;7.218;2022-07-03T07:41:26;156252.16;;;24.07;54.97
23059;BME280;30585;51.502;7.218;2022-07-03T07:43:54;156030.56;;;23.19;53.84
23059;BME280;30585;51.502;7.218;2022-07-03T07:46:23;156124.38;;;23.57;54.63
23059;BME280;30585;51.502;7.218;2022-07-03T07:48:51;156093.13;;;23.44;57.89
23059;BME280;30585;51.502;7.218;2022-07-03T07:51:19;156100.91;;;23.47;55.44
23059;BME280;30585;51.502;7.218;2022-07-03T07:53:47;155941.94;;;22.84;53.03
23059;BME280;30585;51.502;7.218;2022-07-03T07:56:16;156061.84;;;23.32;56.83
23059;BME280;30585;51.502;7.218;2022-07-03T07:58:43;156078.78;;;23.39;55.36
23059;BME280;30585;51.502;7.218;2022-07-03T08:01:11;156007.06;;;23.10;55.32
23059;BME280;30585;51.502;7.218;2022-07-03T08:03:58;156001.88;;;23.08;55.25
23059;BME280;30585;51.502;7.218;2022-07-03T08:06:43;155981.00;;;23.00;52.84
23059;BME280;30585;51.502;7.218;2022-07-03T08:09:11;156003.16;;;23.09;54.38
23059;BME280;30585;51.502;7.218;2022-07-03T08:11:39;156077.47;;;23.38;54.66
23059;BME280;30585;51.502;7.218;2022-07-03T08:14:07;156166.09;;;23.73;55.41
23059;BME280;30585;51.502;7.218;2022-07-03T08:16:36;156192.19;;;23.84;53.98
23059;BME280;30585;51.502;7.218;2022-07-03T08:19:06;156239.16;;;24.02;54.28
23059;BME280;30585;51.502;7.218;2022-07-03T08:21:34;156279.56;;;24.18;53.32
23059;BME280;30585;51.502;7.218;2022-07-03T08:24:03;156423.03;;;24.75;52.80
23059;BME280;30585;51.502;7.218;2022-07-03T08:26:31;156546.91;;;25.24;51.25
23059;BME280;30585;51.502;7.218;2022-07-03T08:28:58;156529.94;;;25.17;49.31
23059;BME280;30585;51.502;7.218;2022-07-03T08:31:26;156569.09;;;25.33;50.64
23059;BME280;30585;51.502;7.218;2022-07-03T08:33:54;156590.03;;;25.41;49.83
23059;BME280;30585;51.502;7.218;2022-07-03T08:36:24;156316.03;;;24.33;48.09
23059;BME280;30585;51.502;7.218;2022-07-03T08:38:51;156362.97;;;24.51;51.36
23059;BME280;30585;51.502;7.218;2022-07-03T08:41:20;156510.41;;;25.10;51.81
23059;BME280;30585;51.502;7.218;2022-07-03T08:43:50;156407.34;;;24.69;49.61
23059;BME280;30585;51.502;7.218;2022-07-03T08:46:19;156526.06;;;25.16;52.15
23059;BME280;30585;51.502;7.218;2022-07-03T08:48:47;156450.41;;;24.86;50.23
23059;BME280;30585;51.502;7.218;2022-07-03T08:51:19;156638.28;;;25.60;49.85
23059;BME280;30585;51.502;7.218;2022-07-03T08:53:49;156725.69;;;25.95;51.47
23059;BME280;30585;51.502;7.218;2022-07-03T08:56:20;156485.63;;;25.00;46.69
23059;BME280;30585;51.502;7.218;2022-07-03T08:58:48;156677.44;;;25.76;47.69
23059;BME280;30585;51.502;7.218;2022-07-03T09:01:17;156591.31;;;25.42;48.09
23059;BME280;30585;51.502;7.218;2022-07-03T09:03:45;156352.56;;;24.47;47.63
23059;BME280;30585;51.502;7.218;2022-07-03T09:06:14;156613.50;;;25.50;49.46
23059;BME280;30585;51.502;7.218;2022-07-03T09:08:43;156711.34;;;25.89;48.93
23059;BME280;30585;51.502;7.218;2022-07-03T09:11:13;156544.31;;;25.23;48.41
23059;BME280;30585;51.502;7.218;2022-07-03T09:13:40;156493.47;;;25.03;46.65
23059;BME280;30585;51.502;7.218;2022-07-03T09:16:14;156638.28;;;25.60;46.21
23059;BME280;30585;51.502;7.218;2022-07-03T09:18:44;156507.81;;;25.09;48.08
23059;BME280;30585;51.502;7.218;2022-07-03T09:21:12;156368.22;;;24.53;47.26
23059;BME280;30585;51.502;7.218;2022-07-03T09:23:41;156462.13;;;24.91;51.79
23059;BME280;30585;51.502;7.218;2022-07-03T09:26:14;156665.69;;;25.71;47.44
23059;BME280;30585;51.502;7.218;2022-07-03T09:28:45;156800.16;;;26.24;47.21
23059;BME280;30585;51.502;7.218;2022-07-03T09:31:15;156888.91;;;26.59;45.19
23059;BME280;30585;51.502;7.218;2022-07-03T09:33:57;156971.19;;;26.92;45.90
23059;BME280;30585;51.502;7.218;2022-07-03T09:36:39;156890.19;;;26.60;44.62
23059;BME280;30585;51.502;7.218;2022-07-03T09:39:14;156838.00;;;26.39;45.67
23059;BME280;30585;51.502;7.218;2022-07-03T09:41:52;156860.19;;;26.48;46.15
23059;BME280;30585;51.502;7.218;2022-07-03T09:44:31;157020.81;;;27.12;43.95
23059;BME280;30585;51.502;7.218;2022-07-03T09:47:07;156865.41;;;26.50;46.37
23059;BME280;30585;51.502;7.218;2022-07-03T09:49:49;156954.19;;;26.85;45.74
23059;BME280;30585;51.502;7.218;2022-07-03T09:52:31;157012.94;;;27.09;45.38
23059;BME280;30585;51.502;7.218;2022-07-03T09:55:11;157097.84;;;27.42;48.39
23059;BME280;30585;51.502;7.218;2022-07-03T09:57:42;156802.78;;;26.25;47.79
23059;BME280;30585;51.502;7.218;2022-07-03T10:00:15;156724.41;;;25.94;45.45
23059;BME280;30585;51.502;7.218;2022-07-03T10:03:08;156823.66;;;26.34;45.59
23059;BME280;30585;51.502;7.218;2022-07-03T10:05:38;156844.53;;;26.42;44.27
23059;BME280;30585;51.502;7.218;2022-07-03T10:08:08;157014.28;;;27.09;46.93
23059;BME280;30585;51.502;7.218;2022-07-03T10:10:40;156853.66;;;26.46;46.96
23059;BME280;30585;51.502;7.218;2022-07-03T10:13:10;156860.19;;;26.48;44.09
23059;BME280;30585;51.502;7.218;2022-07-03T10:15:40;156920.25;;;26.72;43.76
23059;BME280;30585;51.502;7.218;2022-07-03T10:18:10;156925.44;;;26.74;43.46
23059;BME280;30585;51.502;7.218;2022-07-03T10:20:39;156719.19;;;25.92;44.05
23059;BME280;30585;51.502;7.218;2022-07-03T10:23:08;156723.09;;;25.94;47.36
23059;BME280;30585;51.502;7.218;2022-07-03T10:25:37;156685.25;;;25.79;46.03
23059;BME280;30585;51.502;7.218;2022-07-03T10:28:09;156774.06;;;26.14;42.96
23059;BME280;30585;51.502;7.218;2022-07-03T10:30:38;156741.38;;;26.01;45.93
23059;BME280;30585;51.502;7.218;2022-07-03T10:33:07;156962.06;;;26.88;47.02
23059;BME280;30585;51.502;7.218;2022-07-03T10:35:38;157045.63;;;27.21;45.25
23059;BME280;30585;51.502;7.218;2022-07-03T10:38:32;157194.53;;;27.80;43.08
23059;BME280;30585;51.502;7.218;2022-07-03T10:41:06;156989.44;;;26.99;43.47
23059;BME280;30585;51.502;7.218;2022-07-03T10:44:01;156920.25;;;26.72;46.33
23059;BME280;30585;51.502;7.218;2022-07-03T10:46:46;156964.66;;;26.89;43.17
23059;BME280;30585;51.502;7.218;2022-07-03T10:49:15;156835.41;;;26.38;44.69
23059;BME280;30585;51.502;7.218;2022-07-03T10:51:55;156766.22;;;26.11;44.05
23059;BME280;30585;51.502;7.218;2022-07-03T10:54:24;156881.06;;;26.56;46.11
23059;BME280;30585;51.502;7.218;2022-07-03T10:57:09;157020.81;;;27.12;44.72
23059;BME280;30585;51.502;7.218;2022-07-03T11:00:05;157124.00;;;27.52;41.41
23059;BME280;30585;51.502;7.218;2022-07-03T11:02:38;157148.84;;;27.62;40.23
23059;BME280;30585;51.502;7.218;2022-07-03T11:05:23;157156.66;;;27.65;41.78
23059;BME280;30585;51.502;7.218;2022-07-03T11:08:07;156973.81;;;26.93;43.28
23059;BME280;30585;51.502;7.218;2022-07-03T11:10:37;156922.84;;;26.73;45.06
23059;BME280;30585;51.502;7.218;2022-07-03T11:13:13;156976.41;;;26.94;43.92
23059;BME280;30585;51.502;7.218;2022-07-03T11:15:48;156766.22;;;26.11;44.56
23059;BME280;30585;51.502;7.218;2022-07-03T11:18:18;156818.41;;;26.32;44.19
23059;BME280;30585;51.502;7.218;2022-07-03T11:24:08;157104.44;;;27.45;42.34
23059;BME280;30585;51.502;7.218;2022-07-03T11:26:39;157238.97;;;27.98;43.83
23059;BME280;30585;51.502;7.218;2022-07-03T11:29:25;157185.41;;;27.77;39.59
23059;BME280;30585;51.502;7.218;2022-07-03T11:31:54;156964.66;;;26.89;41.20
23059;BME280;30585;51.502;7.218;2022-07-03T11:34:22;156745.28;;;26.03;42.77
23059;BME280;30585;51.502;7.218;2022-07-03T11:36:50;156678.72;;;25.76;45.43
23059;BME280;30585;51.502;7.218;2022-07-03T11:39:19;156915.00;;;26.70;44.80
23059;BME280;30585;51.502;7.218;2022-07-03T11:41:48;157026.03;;;27.14;44.22
23059;BME280;30585;51.502;7.218;2022-07-03T11:44:18;156954.19;;;26.85;40.81
23059;BME280;30585;51.502;7.218;2022-07-03T11:46:51;156768.81;;;26.12;42.46
23059;BME280;30585;51.502;7.218;2022-07-03T11:49:22;156760.97;;;26.09;43.00
23059;BME280;30585;51.502;7.218;2022-07-03T11:51:56;156493.47;;;25.03;44.91
23059;BME280;30585;51.502;7.218;2022-07-03T11:54:25;156937.28;;;26.79;45.96
23059;BME280;30585;51.502;7.218;2022-07-03T11:56:53;157219.38;;;27.90;42.07
23059;BME280;30585;51.502;7.218;2022-07-03T11:59:21;157335.72;;;28.36;40.89
23059;BME280;30585;51.502;7.218;2022-07-03T12:01:50;157423.31;;;28.71;42.71
23059;BME280;30585;51.502;7.218;2022-07-03T12:04:19;156976.41;;;26.94;38.56
23059;BME280;30585;51.502;7.218;2022-07-03T12:06:51;157044.31;;;27.21;40.07
23059;BME280;30585;51.502;7.218;2022-07-03T12:09:21;157224.59;;;27.92;40.24
23059;BME280;30585;51.502;7.218;2022-07-03T12:11:57;157359.22;;;28.45;38.62
23059;BME280;30585;51.502;7.218;2022-07-03T12:14:40;157406.25;;;28.64;38.41
23059;BME280;30585;51.502;7.218;2022-07-03T12:17:10;157488.63;;;28.97;38.67
23059;BME280;30585;51.502;7.218;2022-07-03T12:19:44;157370.97;;;28.50;39.52
23059;BME280;30585;51.502;7.218;2022-07-03T12:22:21;157548.72;;;29.20;37.02
23059;BME280;30585;51.502;7.218;2022-07-03T12:25:01;157623.31;;;29.50;36.72
23059;BME280;30585;51.502;7.218;2022-07-03T12:27:29;157418.03;;;28.69;36.92
23059;BME280;30585;51.502;7.218;2022-07-03T12:29:58;157208.91;;;27.86;37.72
23059;BME280;30585;51.502;7.218;2022-07-03T12:32:26;157112.25;;;27.48;41.27
23059;BME280;30585;51.502;7.218;2022-07-03T12:34:54;157271.69;;;28.11;38.64
23059;BME280;30585;51.502;7.218;2022-07-03T12:37:33;157282.09;;;28.15;38.73
23059;BME280;30585;51.502;7.218;2022-07-03T12:40:01;157286.06;;;28.17;37.67
23059;BME280;30585;51.502;7.218;2022-07-03T12:42:30;157398.41;;;28.61;39.41
23059;BME280;30585;51.502;7.218;2022-07-03T12:44:58;157357.88;;;28.45;36.89
23059;BME280;30585;51.502;7.218;2022-07-03T12:47:28;157419.31;;;28.69;37.84
23059;BME280;30585;51.502;7.218;2022-07-03T12:49:57;157235.03;;;27.96;38.00
23059;BME280;30585;51.502;7.218;2022-07-03T12:52:27;157114.88;;;27.49;39.36
23059;BME280;30585;51.502;7.218;2022-07-03T12:54:58;157301.72;;;28.23;39.65
23059;BME280;30585;51.502;7.218;2022-07-03T12:57:27;157241.56;;;27.99;39.23
23059;BME280;30585;51.502;7.218;2022-07-03T13:00:13;157317.38;;;28.29;38.59
23059;BME280;30585;51.502;7.218;2022-07-03T13:02:45;157039.06;;;27.19;38.57
23059;BME280;30585;51.502;7.218;2022-07-03T13:05:15;157108.34;;;27.46;39.14
23059;BME280;30585;51.502;7.218;2022-07-03T13:07:45;156909.78;;;26.68;39.28
23059;BME280;30585;51.502;7.218;2022-07-03T13:10:15;157014.28;;;27.09;40.71
23059;BME280;30585;51.502;7.218;2022-07-03T13:12:47;157297.81;;;28.21;38.99